Round Rock's Hourly Summary for Saturday, February 28, 2026
Hour Temp
(f)
RH
(%)
Solar Rad.
(MJ/m2)
Rainfall
(in)
Wind
(mph)
Battery
(volts)
2/28/2026 12:00 AM 54 66 0 0 0 0
2/28/2026 1:00 AM 53 59 0 0 0 0
2/28/2026 2:00 AM 51 64 0 0 0 0
2/28/2026 3:00 AM 49 77 0 0 0 0
2/28/2026 4:00 AM 48 75 0 0 0 0
2/28/2026 5:00 AM 49 81 0 0 0 0
2/28/2026 6:00 AM 49 82 0 0 0 0
2/28/2026 7:00 AM 57 93 0.03 0 0.01 0
2/28/2026 8:00 AM 58 95 0.07 0 1.12 0
2/28/2026 9:00 AM 63 75 0.46 0 2.61 0
2/28/2026 10:00 AM 71 55 0.6 0 3.37 0
2/28/2026 11:00 AM 76 42 0.68 0 7.99 0
2/28/2026 12:00 PM 80 35 0.71 0 5.81 0
2/28/2026 1:00 PM 81 30 0.68 0 4.76 0
2/28/2026 2:00 PM 84 28 0.59 0 6 0
2/28/2026 3:00 PM 84 28 0.45 0 1.23 0
2/28/2026 4:00 PM 84 25 0.28 0 8.78 0
2/28/2026 5:00 PM 82 27 0.11 0 3.59 0
2/28/2026 6:00 PM 77 36 0 0 1.55 0
2/28/2026 7:00 PM 74 41 0 0 1.89 0
2/28/2026 8:00 PM 71 43 0 0 3.41 0
2/28/2026 9:00 PM 68 55 0 0 0.01 0
2/28/2026 10:00 PM 65 67 0 0 0 0
2/28/2026 11:00 PM 64 80 0 0 0 0
Data Summary 66 56 4.66 0.00 2.17 0.00